Latest Weather Observations for Kalumburu

IDD60801

Issued at 8:01 pm CST Tuesday 23 October 2018 (issued every 10 minutes, with the page automatically refreshed every 10 minutes)

About weather observations | Map of weather stations | Latest weather observations for NT | Other Formats
Station Details ID: 001019 Name: KALUMBURU Lat: -14.30 Lon: 126.65 Height: 23.0 m
Data from the previous 72 hours. | See also: Recent months at Kalumburu
Date/Time
CST
Temp
°C
App
Temp
°C
Dew
Point
°C
Rel
Hum
%
Delta-T
°C
Wind Press
QNH
hPa
Press
MSL
hPa
Rain since
9am
mm
Dir  Spd
km/h
Gust
km/h
Spd
kts
Gust
kts
23/08:00pm 29.3 31.9 22.0 64 4.9 WNW 11 20 6 11 1009.7 1009.5 0.0
23/07:30pm 30.0 32.5 22.4 63 5.2 NW 13 22 7 12 1009.0 1008.8 0.0
23/07:00pm 30.8 32.7 22.1 59 5.9 NW 15 20 8 11 1008.5 1008.3 0.0
23/06:30pm 31.0 33.3 23.4 64 5.3 NNW 17 26 9 14 1008.1 1007.9 0.0
23/06:00pm 31.8 32.8 22.2 56 6.5 NNW 20 28 11 15 1008.1 1007.9 0.0
23/05:30pm 33.8 33.6 20.6 46 8.9 N 22 33 12 18 1007.4 1007.2 0.0
23/05:00pm 34.9 34.1 20.8 43 9.5 N 26 35 14 19 1007.2 1007.0 0.0
23/04:30pm 34.9 34.4 20.8 43 9.5 N 24 33 13 18 1007.3 1007.1 0.0
23/04:00pm 36.1 35.8 20.4 40 10.6 NNW 22 32 12 17 1007.5 1007.3 0.0
23/03:30pm 36.7 37.1 20.9 39 10.7 N 20 30 11 16 1007.6 1007.4 0.0
23/03:00pm 37.3 38.3 21.8 40 10.6 NNW 19 26 10 14 1007.9 1007.7 0.0
23/02:30pm 37.1 38.2 21.2 39 10.8 N 17 26 9 14 1008.1 1007.9 0.0
23/02:00pm 36.8 38.3 20.6 39 10.9 NNW 13 19 7 10 1008.5 1008.3 0.0
23/01:30pm 36.7 38.2 20.5 39 10.9 NNW 13 19 7 10 1009.0 1008.8 0.0
23/01:00pm 35.0 35.7 20.5 42 9.7 NNW 17 24 9 13 1009.5 1009.3 0.0
23/12:30pm 34.4 35.8 21.1 45 9.0 NNW 15 22 8 12 1010.0 1009.8 0.0
23/12:00pm 34.7 36.2 20.6 43 9.5 NNW 13 22 7 12 1010.4 1010.2 0.0
23/11:30am 34.3 36.0 21.0 45 9.0 N 13 24 7 13 1010.4 1010.2 0.0
23/11:00am 35.0 36.7 20.2 42 9.9 NW 11 15 6 8 1010.4 1010.2 0.0
23/10:30am 33.3 35.8 21.1 48 8.2 WNW 9 17 5 9 1010.6 1010.4 0.0
23/10:00am 32.2 34.5 21.4 53 7.3 WNW 11 17 6 9 1010.8 1010.6 0.0
23/09:30am 31.3 34.6 22.6 60 6.0 W 9 15 5 8 1010.6 1010.4 0.0
23/09:00am 31.2 34.1 22.5 60 5.9 WSW 11 19 6 10 1010.7 1010.5 0.0
23/08:30am 29.8 33.3 22.8 66 4.8 W 9 13 5 7 1010.6 1010.4 0.0
23/08:00am 28.5 32.6 23.2 73 3.6 WNW 7 11 4 6 1010.2 1010.0 0.0
23/07:30am 27.3 32.1 22.9 77 3.0 WNW 2 7 1 4 1009.9 1009.7 0.0
23/07:00am 26.8 30.7 22.6 78 2.8 NW 6 7 3 4 1009.6 1009.4 0.0
23/06:30am 26.5 30.5 22.8 80 2.5 WNW 6 9 3 5 1009.4 1009.2 0.0
23/06:00am 27.0 30.9 23.0 79 2.7 N 7 11 4 6 1009.0 1008.8 0.0
23/05:30am 26.4 31.2 22.9 81 2.4 NNE 2 11 1 6 1008.6 1008.4 0.0
23/05:00am 26.2 30.2 22.7 81 2.4 N 6 11 3 6 1008.9 1008.7 0.0
23/04:30am 25.8 30.8 22.5 82 2.2 CALM 0 2 0 1 1008.8 1008.6 0.0
23/04:00am 25.6 30.5 22.3 82 2.2 CALM 0 6 0 3 1009.1 1008.9 0.0
23/03:30am 25.6 30.0 22.1 81 2.3 S 2 7 1 4 1009.2 1009.0 0.0
23/03:00am 25.7 30.3 21.8 79 2.6 CALM 0 0 0 0 1009.7 1009.5 0.0
23/02:30am 27.0 31.2 22.4 76 3.1 S 4 9 2 5 1010.5 1010.3 0.0
23/02:00am 26.9 30.9 22.7 78 2.8 SSW 6 7 3 4 1010.8 1010.6 0.0
23/01:30am 27.2 31.9 22.6 76 3.1 SW 2 15 1 8 1010.5 1010.3 0.0
23/01:00am 27.4 31.2 22.8 76 3.1 WSW 7 13 4 7 1010.8 1010.6 0.0
23/12:30am 27.4 31.5 23.0 77 3.0 WNW 6 13 3 7 1010.8 1010.6 0.0
23/12:00am 27.2 31.0 22.8 77 3.0 NNW 7 11 4 6 1010.8 1010.6 0.0
 
Date/Time
CST
Temp
°C
App
Temp
°C
Dew
Point
°C
Rel
Hum
%
Delta-T
°C
Wind Press
QNH
hPa
Press
MSL
hPa
Rain since
9am
mm
Dir  Spd
km/h
Gust
km/h
Spd
kts
Gust
kts
22/11:30pm 27.1 30.5 22.7 77 3.0 NW 9 15 5 8 1010.9 1010.7 0.0
22/11:00pm 27.2 31.0 22.8 77 3.0 NW 7 11 4 6 1011.0 1010.8 0.0
22/10:30pm 27.6 31.4 22.8 75 3.3 WNW 7 11 4 6 1011.4 1011.2 0.0
22/10:00pm 27.8 31.2 22.7 74 3.5 WNW 9 15 5 8 1011.2 1011.0 0.0
22/09:30pm 27.9 31.4 22.8 74 3.5 WNW 9 15 5 8 1010.6 1010.4 0.0
22/09:00pm 28.1 31.1 22.6 72 3.7 NW 11 17 6 9 1010.1 1009.9 0.0
22/08:30pm 28.6 31.2 22.6 70 4.1 NW 13 20 7 11 1010.1 1009.9 0.0
22/08:00pm 29.1 31.5 22.3 66 4.6 WNW 13 22 7 12 1009.6 1009.4 0.0
22/07:30pm 29.7 32.1 22.2 64 5.1 NW 13 19 7 10 1009.2 1009.0 0.0
22/07:00pm 30.3 32.1 21.9 60 5.7 NW 15 24 8 13 1008.9 1008.7 0.0
22/06:30pm 31.4 32.8 21.8 56 6.5 NNW 17 24 9 13 1008.6 1008.4 0.0
22/06:00pm 32.8 33.6 21.3 50 7.8 N 19 28 10 15 1008.2 1008.0 0.0
22/05:30pm 34.1 35.2 21.2 47 8.7 NNW 17 26 9 14 1007.7 1007.5 0.0
22/05:00pm 35.6 37.4 21.1 43 9.8 NNW 13 20 7 11 1007.3 1007.1 0.0
22/04:30pm 35.5 35.9 18.1 35 11.4 NW 13 22 7 12 1007.4 1007.2 0.0
22/04:00pm 36.2 36.8 18.7 35 11.5 WNW 13 20 7 11 1007.5 1007.3 0.0
22/03:30pm 35.2 35.8 20.3 41 10.0 NNW 17 26 9 14 1007.8 1007.6 0.0
22/03:00pm 35.9 37.2 20.2 40 10.5 NNW 13 20 7 11 1008.2 1008.0 0.0
22/02:30pm 35.2 36.6 20.3 41 10.0 WNW 13 20 7 11 1008.6 1008.4 0.0
22/02:00pm 34.9 37.9 22.6 49 8.5 NNW 11 17 6 9 1008.9 1008.7 0.0
22/01:30pm 34.2 36.0 21.9 48 8.4 NNW 15 22 8 12 1009.5 1009.3 0.0
22/01:00pm 33.2 34.5 21.7 51 7.8 NNW 17 30 9 16 1010.2 1010.0 0.0
22/12:30pm 34.4 36.6 21.8 48 8.6 NW 13 22 7 12 1010.6 1010.4 0.0
22/12:00pm 33.3 35.5 21.1 48 8.2 NNW 11 17 6 9 1011.0 1010.8 0.0
22/11:30am 32.6 36.1 21.8 53 7.3 W 6 11 3 6 1011.5 1011.3 0.0
22/11:00am 31.0 33.9 21.8 58 6.2 NW 9 13 5 7 1012.1 1011.9 0.0
22/10:30am 30.7 34.3 22.3 61 5.7 NW 7 13 4 7 1012.6 1012.4 0.0
22/10:00am 30.2 34.1 22.6 63 5.2 WNW 6 9 3 5 1013.0 1012.8 0.0
22/09:30am 29.4 33.3 22.6 67 4.6 WNW 6 11 3 6 1013.0 1012.8 0.0
22/09:00am 28.6 32.4 22.8 71 4.0 NW 7 9 4 5 1012.8 1012.6 0.0
22/08:30am 27.8 31.5 22.5 73 3.6 NW 7 11 4 6 1012.6 1012.4 0.0
22/08:00am 27.4 31.1 22.6 75 3.3 NW 7 9 4 5 1012.5 1012.3 0.0
22/07:30am 27.5 31.1 22.4 73 3.4 NW 7 9 4 5 1012.0 1011.8 0.0
22/07:00am 27.4 31.0 22.4 74 3.4 WNW 7 11 4 6 1011.5 1011.3 0.0
22/06:30am 27.3 30.9 22.3 74 3.4 WNW 7 13 4 7 1011.1 1010.9 0.0
22/06:00am 27.2 30.8 22.4 75 3.2 WNW 7 11 4 6 1010.6 1010.4 0.0
22/05:30am 26.7 31.5 22.1 76 3.1 CALM 0 0 0 0 1010.4 1010.2 0.0
22/05:00am 27.0 31.3 22.0 74 3.4 WNW 2 7 1 4 1010.1 1009.9 0.0
22/04:30am 26.8 30.3 22.2 76 3.1 NW 7 11 4 6 1010.0 1009.8 0.0
22/04:00am 26.7 31.1 22.1 76 3.1 NW 2 11 1 6 1009.7 1009.5 0.0
22/03:30am 26.8 30.4 22.0 75 3.2 WNW 6 9 3 5 1009.7 1009.5 0.0
22/03:00am 26.8 30.5 22.2 76 3.1 WNW 6 9 3 5 1009.6 1009.4 0.0
22/02:30am 25.9 30.5 22.4 81 2.4 WNW 2 9 1 5 1009.7 1009.5 0.0
22/02:00am 25.1 28.4 21.8 82 2.2 NNW 7 11 4 6 1009.9 1009.7 0.0
22/01:30am 25.9 30.5 21.8 78 2.7 CALM 0 0 0 0 1010.4 1010.2 0.0
22/01:00am 26.7 30.3 22.1 76 3.1 WNW 6 9 3 5 1010.6 1010.4 0.0
22/12:30am 26.8 30.3 22.2 76 3.1 NW 7 11 4 6 1010.8 1010.6 0.0
22/12:00am 27.1 30.3 22.3 75 3.2 NW 9 13 5 7 1011.4 1011.2 0.0
 
Date/Time
CST
Temp
°C
App
Temp
°C
Dew
Point
°C
Rel
Hum
%
Delta-T
°C
Wind Press
QNH
hPa
Press
MSL
hPa
Rain since
9am
mm
Dir  Spd
km/h
Gust
km/h
Spd
kts
Gust
kts
21/11:30pm 27.0 30.0 22.0 74 3.4 NW 9 13 5 7 1011.6 1011.4 0.0
21/11:00pm 27.4 30.5 22.1 73 3.6 NW 9 15 5 8 1011.6 1011.4 0.0
21/10:30pm 27.7 30.4 22.2 72 3.7 NW 11 17 6 9 1011.6 1011.4 0.0
21/10:00pm 28.0 30.0 22.2 70 3.9 NW 15 20 8 11 1011.3 1011.1 0.0
21/09:30pm 28.2 30.6 22.2 70 4.1 NW 13 20 7 11 1011.1 1010.9 0.0
21/09:00pm 28.5 30.4 22.0 68 4.4 NNW 15 20 8 11 1010.6 1010.4 0.0
21/08:30pm 28.8 31.3 21.8 66 4.7 NW 11 19 6 10 1010.1 1009.9 0.0
21/08:00pm 29.2 31.1 21.4 63 5.2 NNW 13 20 7 11 1009.9 1009.7 0.0
21/07:30pm 29.7 31.9 21.9 63 5.3 NNW 13 19 7 10 1009.7 1009.5 0.0
21/07:00pm 30.3 31.9 21.4 59 6.0 NNW 15 22 8 12 1009.2 1009.0 0.0
21/06:30pm 31.4 33.3 21.3 55 6.8 NW 13 20 7 11 1008.5 1008.3 0.0
21/06:00pm 32.6 33.9 20.8 49 7.9 NNW 15 22 8 12 1008.0 1007.8 0.0
21/05:30pm 34.0 35.2 21.4 47 8.6 NW 17 26 9 14 1007.6 1007.4 0.0
21/05:00pm 34.2 34.6 20.9 45 9.0 NNW 20 32 11 17 1007.5 1007.3 0.0
21/04:30pm 36.3 36.8 20.1 38 10.9 NNW 17 26 9 14 1007.5 1007.3 0.0
21/04:00pm 35.9 36.4 19.3 37 11.0 NNW 15 26 8 14 1007.8 1007.6 0.0
21/03:30pm 36.2 37.1 19.2 37 11.3 NW 13 19 7 10 1008.3 1008.1 0.0
21/03:00pm 36.6 38.0 19.5 36 11.4 WNW 11 20 6 11 1008.5 1008.3 0.0
21/02:30pm 36.3 37.4 18.8 35 11.5 NW 11 22 6 12 1008.9 1008.7 0.0
21/02:00pm 36.2 36.3 18.3 34 11.7 WNW 15 22 8 12 1009.2 1009.0 0.0
21/01:30pm 36.2 36.9 19.6 37 11.1 NW 15 22 8 12 1009.7 1009.5 0.0
21/01:00pm 36.2 38.0 19.6 37 11.1 WNW 9 19 5 10 1010.4 1010.2 0.0
21/12:30pm 35.9 36.8 19.3 37 11.0 NW 13 24 7 13 1011.3 1011.1 0.0
21/12:00pm 35.9 37.7 22.5 46 9.3 NNW 17 22 9 12 1011.8 1011.6 0.0
21/11:30am 33.3 34.7 21.1 48 8.2 NNW 15 24 8 13 1012.2 1012.0 0.0
21/11:00am 34.2 36.0 22.6 50 8.0 N 17 26 9 14 1012.6 1012.4 0.0
21/10:30am 32.5 34.5 20.7 49 7.9 NNW 11 19 6 10 1012.9 1012.7 0.0
21/10:00am 32.7 34.5 21.2 50 7.7 N 13 22 7 12 1013.0 1012.8 0.0
21/09:30am 33.0 36.2 22.4 53 7.3 NW 9 15 5 8 1013.0 1012.8 0.0
21/09:00am 30.5 33.5 22.7 63 5.3 NW 11 17 6 9 1012.6 1012.4 0.0
21/08:30am 29.4 33.6 23.4 70 4.1 WNW 7 13 4 7 1012.5 1012.3 0.0
21/08:00am 28.6 32.2 23.1 72 3.8 NW 9 11 5 6 1012.3 1012.1 0.0
21/07:30am 28.2 32.2 23.1 74 3.5 WNW 7 13 4 7 1011.9 1011.7 0.0
21/07:00am 27.9 31.7 22.8 74 3.5 NW 7 11 4 6 1011.6 1011.4 0.0
21/06:30am 28.0 31.8 22.7 73 3.6 WNW 7 13 4 7 1011.2 1011.0 0.0
21/06:00am 28.0 31.9 22.9 74 3.5 WNW 7 13 4 7 1011.1 1010.9 0.0
21/05:30am 27.9 31.6 22.6 73 3.6 NW 7 11 4 6 1010.8 1010.6 0.0
21/05:00am 28.0 31.8 22.7 73 3.6 NW 7 9 4 5 1010.6 1010.4 0.0
21/04:30am 28.0 31.4 22.7 73 3.6 NW 9 13 5 7 1010.4 1010.2 0.0
21/04:00am 27.8 31.6 22.7 74 3.5 NW 7 11 4 6 1010.0 1009.8 0.0
21/03:30am 27.8 31.8 22.7 74 3.5 NW 6 9 3 5 1010.0 1009.8 0.0
21/03:00am 27.9 31.7 22.8 74 3.5 NW 7 11 4 6 1010.0 1009.8 0.0
21/02:30am 27.8 31.5 22.3 72 3.7 NW 6 9 3 5 1010.0 1009.8 0.0
21/02:00am 27.8 31.4 22.3 72 3.7 WNW 7 9 4 5 1010.1 1009.9 0.0
21/01:30am 27.9 31.5 22.4 72 3.7 WNW 7 11 4 6 1010.5 1010.3 0.0
21/01:00am 28.1 31.3 22.3 70 3.9 WNW 9 15 5 8 1010.9 1010.7 0.0
21/12:30am 28.2 31.4 22.4 71 3.9 W 9 15 5 8 1011.3 1011.1 0.0
21/12:00am 28.0 31.6 22.0 70 4.0 W 6 11 3 6 1011.6 1011.4 0.0
 
Date/Time
CST
Temp
°C
App
Temp
°C
Dew
Point
°C
Rel
Hum
%
Delta-T
°C
Wind Press
QNH
hPa
Press
MSL
hPa
Rain since
9am
mm
Dir  Spd
km/h
Gust
km/h
Spd
kts
Gust
kts
20/11:30pm 27.7 31.7 21.3 68 4.3 W 2 6 1 3 1011.9 1011.7 0.0
20/11:00pm 28.3 31.2 21.8 68 4.4 NW 9 13 5 7 1012.1 1011.9 0.0
20/10:30pm 28.8 31.7 21.8 66 4.7 WNW 9 13 5 7 1012.0 1011.8 0.0
20/10:00pm 29.3 31.1 18.7 52 6.8 WNW 7 13 4 7 1012.2 1012.0 0.0

Other Formats:

Comma delimited format used in spreadsheet applications
http://www.bom.gov.au/fwo/IDD60801/IDD60801.94100.axf

JavaScript Object Notation format (JSON) in row-major order
http://www.bom.gov.au/fwo/IDD60801/IDD60801.94100.json